Terminal Aerodrome Forecast
Issued by NWS Sioux Falls, SD

Home | Current Version | Previous Version | Graphics & Text | Print | Product List | Glossary On
Versions: 1 2 3 4 5 6 7 8 9 10 11 12 13 14 15 16 17 18 19 20 21 22 23 24 25 26 27
000
FTUS43 KFSD 151132
TAFSUX
TAF
KSUX 151132Z 1512/1612 33021G30KT P6SM FEW020
     FM151700 33023G31KT P6SM SCT020
     FM160200 33017KT P6SM SCT020=

USA.gov is the U.S. government's official web portal to all federal, state and local government web resources and services.